createdAt,value
2016-11-27T00:00:06.149Z,-0.49
2016-11-27T00:01:07.629Z,-0.49
2016-11-27T00:02:09.150Z,-0.49
2016-11-27T00:03:10.641Z,-0.49
2016-11-27T00:04:12.151Z,-0.49
2016-11-27T00:05:13.656Z,-0.54
2016-11-27T00:06:15.168Z,-0.59
2016-11-27T00:07:16.640Z,-0.54
2016-11-27T00:08:18.176Z,-0.59
2016-11-27T00:09:19.701Z,-0.63
2016-11-27T00:10:21.188Z,-0.68
2016-11-27T00:11:22.667Z,-0.73
2016-11-27T00:12:24.174Z,-0.77
2016-11-27T00:13:25.686Z,-0.77
2016-11-27T00:14:27.214Z,-0.77
2016-11-27T00:15:28.711Z,-0.77
2016-11-27T00:16:30.253Z,-0.82
2016-11-27T00:17:31.788Z,-0.87
2016-11-27T00:18:33.297Z,-0.87
2016-11-27T00:19:34.813Z,-0.91
2016-11-27T00:20:36.298Z,-0.91
2016-11-27T00:21:37.820Z,-1.01
2016-11-27T00:22:39.328Z,-1.15
2016-11-27T00:23:40.847Z,-1.19
2016-11-27T00:24:42.370Z,-1.24
2016-11-27T00:25:43.908Z,-1.34
2016-11-27T00:26:45.397Z,-1.34
2016-11-27T00:27:46.895Z,-1.38
2016-11-27T00:28:48.414Z,-1.43
2016-11-27T00:29:49.917Z,-1.43
2016-11-27T00:30:51.395Z,-1.43
2016-11-27T00:31:52.880Z,-1.43
2016-11-27T00:32:54.403Z,-1.38
2016-11-27T00:33:55.928Z,-1.38
2016-11-27T00:34:57.414Z,-1.38
2016-11-27T00:35:58.925Z,-1.38
2016-11-27T00:37:00.406Z,-1.38
2016-11-27T00:38:01.944Z,-1.43
2016-11-27T00:39:03.495Z,-1.38
2016-11-27T00:40:05.012Z,-1.38
2016-11-27T00:41:06.490Z,-1.43
2016-11-27T00:42:07.989Z,-1.48
2016-11-27T00:43:09.478Z,-1.52
2016-11-27T00:44:10.964Z,-1.52
2016-11-27T00:45:12.449Z,-1.52
2016-11-27T00:46:13.945Z,-1.52
2016-11-27T00:47:15.427Z,-1.52
2016-11-27T00:48:16.902Z,-1.48
2016-11-27T00:49:18.454Z,-1.43
2016-11-27T00:50:19.963Z,-1.48
2016-11-27T00:51:21.504Z,-1.48
2016-11-27T00:52:22.978Z,-1.43
2016-11-27T00:53:24.509Z,-1.48
2016-11-27T00:54:26.022Z,-1.48
2016-11-27T00:55:27.507Z,-1.52
2016-11-27T00:56:28.993Z,-1.57
2016-11-27T00:57:30.471Z,-1.62
2016-11-27T00:58:31.956Z,-1.67
2016-11-27T00:59:33.479Z,-1.67
2016-11-27T01:00:34.967Z,-1.67
2016-11-27T01:01:36.451Z,-1.62
2016-11-27T01:02:37.971Z,-1.62
2016-11-27T01:03:39.466Z,-1.52
2016-11-27T01:04:40.976Z,-1.43
2016-11-27T01:05:42.497Z,-1.19
2016-11-27T01:06:43.977Z,-1.01
2016-11-27T01:07:45.458Z,-0.87
2016-11-27T01:08:46.944Z,-0.68
2016-11-27T01:09:48.477Z,-0.54
2016-11-27T01:10:49.959Z,-0.49
2016-11-27T01:11:51.444Z,-0.4
2016-11-27T01:12:52.943Z,-0.36
2016-11-27T01:13:54.475Z,-0.36
2016-11-27T01:14:55.969Z,-0.31
2016-11-27T01:15:57.498Z,-0.26
2016-11-27T01:16:58.981Z,-0.17
2016-11-27T01:18:00.468Z,-0.17
2016-11-27T01:19:01.959Z,-0.17
2016-11-27T01:20:03.481Z,-0.22
2016-11-27T01:21:04.967Z,-0.22
2016-11-27T01:22:06.451Z,-0.17
2016-11-27T01:23:07.966Z,-0.08
2016-11-27T01:24:09.428Z,0.01
2016-11-27T01:25:10.895Z,0.1
2016-11-27T01:26:12.368Z,0.15
2016-11-27T01:27:13.848Z,0.19
2016-11-27T01:28:15.316Z,0.15
2016-11-27T01:29:16.778Z,0.19
2016-11-27T01:30:18.324Z,0.15
2016-11-27T01:31:19.867Z,0.15
2016-11-27T01:32:21.329Z,0.15
2016-11-27T01:33:22.831Z,0.1
2016-11-27T01:34:24.329Z,0.01
2016-11-27T01:35:25.874Z,-0.03
2016-11-27T01:36:27.351Z,-0.08
2016-11-27T01:37:28.874Z,-0.13
2016-11-27T01:38:30.375Z,-0.08
2016-11-27T01:39:31.844Z,0.01
2016-11-27T01:40:33.329Z,0.1
2016-11-27T01:41:34.847Z,0.24
2016-11-27T01:42:36.313Z,0.28
2016-11-27T01:43:37.776Z,0.33
2016-11-27T01:44:39.236Z,0.38
2016-11-27T01:45:40.755Z,0.38
2016-11-27T01:46:42.246Z,0.42
2016-11-27T01:47:43.714Z,0.47
2016-11-27T01:48:45.200Z,0.38
2016-11-27T01:49:46.716Z,0.33
2016-11-27T01:50:48.206Z,0.28
2016-11-27T01:51:49.696Z,0.28
2016-11-27T01:52:51.177Z,0.28
2016-11-27T01:53:52.650Z,0.28
2016-11-27T01:54:54.120Z,0.28
2016-11-27T01:55:55.608Z,0.38
2016-11-27T01:56:57.116Z,0.47
2016-11-27T01:57:58.620Z,0.56
2016-11-27T01:59:00.091Z,0.56
2016-11-27T02:00:01.556Z,0.6
2016-11-27T02:01:03.022Z,0.6
2016-11-27T02:02:04.510Z,0.65
2016-11-27T02:03:06.018Z,0.69
2016-11-27T02:04:07.503Z,0.6
2016-11-27T02:05:08.966Z,0.47
2016-11-27T02:06:10.439Z,0.33
2016-11-27T02:07:11.957Z,0.33
2016-11-27T02:08:13.476Z,0.28
2016-11-27T02:09:14.949Z,0.33
2016-11-27T02:10:16.415Z,0.42
2016-11-27T02:11:17.898Z,0.47
2016-11-27T02:12:19.368Z,0.51
2016-11-27T02:13:20.886Z,0.56
2016-11-27T02:14:22.385Z,0.6
2016-11-27T02:15:23.889Z,0.65
2016-11-27T02:16:25.388Z,0.69
2016-11-27T02:17:26.865Z,0.78
2016-11-27T02:18:28.413Z,0.83
2016-11-27T02:19:29.921Z,0.83
2016-11-27T02:20:31.392Z,0.83
2016-11-27T02:21:32.915Z,0.87
2016-11-27T02:22:34.373Z,0.87
2016-11-27T02:23:35.841Z,0.87
2016-11-27T02:24:37.304Z,0.91
2016-11-27T02:25:38.762Z,0.91
2016-11-27T02:26:40.235Z,0.91
2016-11-27T02:27:41.706Z,0.91
2016-11-27T02:28:43.194Z,0.91
2016-11-27T02:29:44.706Z,0.91
2016-11-27T02:30:46.171Z,0.96
2016-11-27T02:31:47.645Z,0.96
2016-11-27T02:32:49.125Z,1
2016-11-27T02:33:50.615Z,1
2016-11-27T02:34:52.124Z,1.09
2016-11-27T02:35:53.621Z,1.09
2016-11-27T02:36:55.091Z,1.14
2016-11-27T02:37:56.553Z,1.18
2016-11-27T02:38:58.027Z,1.18
2016-11-27T02:39:59.542Z,1.18
2016-11-27T02:41:01.053Z,1.23
2016-11-27T02:42:02.587Z,1.27
2016-11-27T02:43:04.060Z,1.27
2016-11-27T02:44:05.528Z,1.27
2016-11-27T02:45:06.997Z,1.27
2016-11-27T02:46:08.511Z,1.23
2016-11-27T02:47:09.992Z,1.27
2016-11-27T02:48:11.451Z,1.31
2016-11-27T02:49:12.926Z,1.31
2016-11-27T02:50:14.438Z,1.36
2016-11-27T02:51:15.902Z,1.31
2016-11-27T02:52:17.376Z,1.31
2016-11-27T02:53:18.850Z,1.23
2016-11-27T02:54:20.352Z,1.23
2016-11-27T02:55:21.814Z,1.18
2016-11-27T02:56:23.342Z,1.18
2016-11-27T02:57:24.839Z,1.18
2016-11-27T02:58:26.344Z,1.23
2016-11-27T02:59:27.859Z,1.18
2016-11-27T03:00:29.396Z,1.23
2016-11-27T03:01:30.895Z,1.27
2016-11-27T03:02:32.369Z,1.27
2016-11-27T03:03:33.835Z,1.31
2016-11-27T03:04:35.302Z,1.36
2016-11-27T03:05:36.752Z,1.4
2016-11-27T03:06:38.249Z,1.45
2016-11-27T03:07:39.727Z,1.54
2016-11-27T03:08:41.188Z,1.58
2016-11-27T03:09:42.652Z,1.67
2016-11-27T03:10:44.112Z,1.71
2016-11-27T03:11:45.574Z,1.8
2016-11-27T03:12:47.047Z,1.84
2016-11-27T03:13:48.506Z,1.93
2016-11-27T03:14:49.969Z,1.97
2016-11-27T03:15:51.487Z,1.93
2016-11-27T03:16:52.983Z,1.93
2016-11-27T03:17:54.492Z,1.93
2016-11-27T03:18:56.010Z,1.84
2016-11-27T03:19:57.472Z,1.84
2016-11-27T03:20:58.950Z,1.8
2016-11-27T03:22:00.393Z,1.8
2016-11-27T03:23:01.882Z,1.75
2016-11-27T03:24:03.347Z,1.75
2016-11-27T03:25:04.825Z,1.75
2016-11-27T03:26:06.289Z,1.75
2016-11-27T03:27:07.744Z,1.8
2016-11-27T03:28:09.284Z,1.8
2016-11-27T03:29:10.758Z,1.75
2016-11-27T03:30:12.228Z,1.67
2016-11-27T03:31:13.695Z,1.67
2016-11-27T03:32:15.174Z,1.62
2016-11-27T03:33:16.654Z,1.62
2016-11-27T03:34:18.152Z,1.71
2016-11-27T03:35:19.664Z,1.75
2016-11-27T03:36:21.169Z,1.84
2016-11-27T03:37:22.667Z,1.93
2016-11-27T03:38:24.194Z,1.97
2016-11-27T03:39:25.665Z,2.06
2016-11-27T03:40:27.147Z,2.1
2016-11-27T03:41:28.601Z,2.1
2016-11-27T03:42:30.116Z,2.06
2016-11-27T03:43:31.642Z,2.06
2016-11-27T03:44:33.134Z,2.06
2016-11-27T03:45:34.593Z,2.06
2016-11-27T03:46:36.060Z,2.06
2016-11-27T03:47:37.549Z,2.06
2016-11-27T03:48:39.077Z,2.06
2016-11-27T03:49:40.533Z,2.06
2016-11-27T03:50:42.008Z,2.1
2016-11-27T03:51:43.506Z,2.1
2016-11-27T03:52:44.979Z,2.06
2016-11-27T03:53:46.449Z,2.1
2016-11-27T03:54:47.929Z,2.1
2016-11-27T03:55:49.377Z,2.1
2016-11-27T03:56:50.822Z,2.1
2016-11-27T03:57:52.326Z,2.15
2016-11-27T03:58:53.800Z,2.15
2016-11-27T03:59:55.290Z,2.15
2016-11-27T04:00:56.774Z,2.15
2016-11-27T04:01:58.240Z,2.15
2016-11-27T04:02:59.687Z,2.1
2016-11-27T04:04:01.168Z,2.06
2016-11-27T04:05:02.673Z,2.1
2016-11-27T04:06:04.207Z,2.15
2016-11-27T04:07:05.697Z,2.15
2016-11-27T04:08:07.168Z,2.15
2016-11-27T04:09:08.642Z,2.19
2016-11-27T04:10:10.149Z,2.23
2016-11-27T04:11:11.627Z,2.28
2016-11-27T04:12:13.094Z,2.28
2016-11-27T04:13:14.557Z,2.32
2016-11-27T04:14:16.038Z,2.32
2016-11-27T04:15:17.509Z,2.36
2016-11-27T04:16:19.030Z,2.36
2016-11-27T04:17:20.545Z,2.36
2016-11-27T04:18:22.015Z,2.36
2016-11-27T04:19:23.525Z,2.36
2016-11-27T04:20:24.990Z,2.36
2016-11-27T04:21:26.455Z,2.36
2016-11-27T04:22:27.960Z,2.36
2016-11-27T04:23:29.421Z,2.36
2016-11-27T04:24:30.970Z,2.36
2016-11-27T04:25:32.432Z,2.36
2016-11-27T04:26:33.942Z,2.36
2016-11-27T04:27:35.430Z,2.32
2016-11-27T04:28:36.898Z,2.28
2016-11-27T04:29:38.385Z,2.28
2016-11-27T04:30:39.846Z,2.23
2016-11-27T04:31:41.315Z,2.28
2016-11-27T04:32:42.812Z,2.28
2016-11-27T04:33:44.271Z,2.28
2016-11-27T04:34:45.760Z,2.28
2016-11-27T04:35:47.235Z,2.23
2016-11-27T04:36:48.699Z,2.28
2016-11-27T04:37:50.207Z,2.32
2016-11-27T04:38:51.670Z,2.36
2016-11-27T04:39:53.142Z,2.36
2016-11-27T04:40:54.601Z,2.36
2016-11-27T04:41:56.070Z,2.36
2016-11-27T04:42:57.552Z,2.36
2016-11-27T04:43:59.065Z,2.41
2016-11-27T04:45:00.589Z,2.58
2016-11-27T04:46:02.072Z,2.71
2016-11-27T04:47:03.537Z,2.79
2016-11-27T04:48:04.997Z,2.88
2016-11-27T04:49:06.462Z,2.96
2016-11-27T04:50:07.947Z,2.96
2016-11-27T04:51:09.458Z,3.01
2016-11-27T04:52:10.943Z,3.05
2016-11-27T04:53:12.423Z,3.05
2016-11-27T04:54:13.951Z,3.09
2016-11-27T04:55:15.489Z,3.09
2016-11-27T04:56:16.950Z,3.13
2016-11-27T04:57:18.413Z,3.13
2016-11-27T04:58:19.884Z,3.18
2016-11-27T04:59:21.352Z,3.18
2016-11-27T05:00:22.833Z,3.22
2016-11-27T05:01:24.295Z,3.22
2016-11-27T05:02:25.814Z,3.22
2016-11-27T05:03:27.281Z,3.22
2016-11-27T05:04:28.775Z,3.26
2016-11-27T05:05:30.296Z,3.22
2016-11-27T05:06:31.771Z,3.26
2016-11-27T05:07:33.234Z,3.26
2016-11-27T05:08:34.750Z,3.26
2016-11-27T05:09:36.211Z,3.3
2016-11-27T05:10:37.742Z,3.3
2016-11-27T05:11:39.195Z,3.3
2016-11-27T05:12:40.680Z,3.3
2016-11-27T05:13:42.141Z,3.3
2016-11-27T05:14:43.628Z,3.3
2016-11-27T05:15:45.106Z,3.3
2016-11-27T05:16:46.581Z,3.35
2016-11-27T05:17:48.057Z,3.39
2016-11-27T05:18:49.524Z,3.35
2016-11-27T05:19:50.986Z,3.35
2016-11-27T05:20:52.506Z,3.35
2016-11-27T05:21:53.976Z,3.35
2016-11-27T05:22:55.438Z,3.39
2016-11-27T05:23:56.953Z,3.39
2016-11-27T05:24:58.438Z,3.39
2016-11-27T05:25:59.945Z,3.39
2016-11-27T05:27:01.465Z,3.39
2016-11-27T05:28:02.974Z,3.39
2016-11-27T05:29:04.443Z,3.39
2016-11-27T05:30:05.909Z,3.39
2016-11-27T05:31:07.433Z,3.43
2016-11-27T05:32:08.905Z,3.43
2016-11-27T05:33:10.385Z,3.43
2016-11-27T05:34:11.850Z,3.43
2016-11-27T05:35:13.349Z,3.43
2016-11-27T05:36:14.826Z,3.43
2016-11-27T05:37:16.291Z,3.43
2016-11-27T05:38:17.756Z,3.43
2016-11-27T05:39:19.229Z,3.43
2016-11-27T05:40:20.696Z,3.47
2016-11-27T05:41:22.163Z,3.47
2016-11-27T05:42:23.699Z,3.47
2016-11-27T05:43:25.221Z,3.47
2016-11-27T05:44:26.688Z,3.47
2016-11-27T05:45:28.166Z,3.47
2016-11-27T05:46:29.659Z,3.47
2016-11-27T05:47:31.164Z,3.43
2016-11-27T05:48:32.641Z,3.43
2016-11-27T05:49:34.133Z,3.43
2016-11-27T05:50:35.602Z,3.43
2016-11-27T05:51:37.109Z,3.43
2016-11-27T05:52:38.654Z,3.43
2016-11-27T05:53:40.152Z,3.39
2016-11-27T05:54:41.617Z,3.39
2016-11-27T05:55:43.122Z,3.43
2016-11-27T05:56:44.596Z,3.39
2016-11-27T05:57:46.064Z,3.39
2016-11-27T05:58:47.551Z,3.39
2016-11-27T05:59:49.066Z,3.39
2016-11-27T06:00:50.555Z,3.39
2016-11-27T06:01:52.028Z,3.39
2016-11-27T06:02:53.522Z,3.39
2016-11-27T06:03:55.038Z,3.39
2016-11-27T06:04:56.504Z,3.39
2016-11-27T06:05:57.973Z,3.39
2016-11-27T06:06:59.453Z,3.39
2016-11-27T06:08:00.950Z,3.39
2016-11-27T06:09:02.455Z,3.39
2016-11-27T06:10:03.980Z,3.39
2016-11-27T06:11:05.503Z,3.39
2016-11-27T06:12:06.974Z,3.39
2016-11-27T06:13:08.494Z,3.35
2016-11-27T06:14:09.995Z,3.35
2016-11-27T06:15:11.506Z,3.35
2016-11-27T06:16:12.997Z,3.35
2016-11-27T06:17:14.476Z,3.35
2016-11-27T06:18:15.981Z,3.39
2016-11-27T06:19:17.498Z,3.39
2016-11-27T06:20:18.960Z,3.35
2016-11-27T06:21:20.466Z,3.35
2016-11-27T06:22:21.956Z,3.35
2016-11-27T06:23:23.476Z,3.35
2016-11-27T06:24:24.990Z,3.35
2016-11-27T06:25:26.457Z,3.35
2016-11-27T06:26:27.909Z,3.3
2016-11-27T06:27:29.384Z,3.3
2016-11-27T06:28:30.847Z,3.3
2016-11-27T06:29:32.320Z,3.3
2016-11-27T06:30:33.765Z,3.3
2016-11-27T06:31:35.249Z,3.3
2016-11-27T06:32:36.711Z,3.3
2016-11-27T06:33:38.156Z,3.3
2016-11-27T06:34:39.612Z,3.3
2016-11-27T06:35:41.084Z,3.26
2016-11-27T06:36:42.538Z,3.3
2016-11-27T06:37:44.044Z,3.26
2016-11-27T06:38:45.510Z,3.26
2016-11-27T06:39:46.991Z,3.26
2016-11-27T06:40:48.469Z,3.3
2016-11-27T06:41:49.923Z,3.3
2016-11-27T06:42:51.411Z,3.26
2016-11-27T06:43:52.857Z,3.3
2016-11-27T06:44:54.331Z,3.3
2016-11-27T06:45:55.779Z,3.3
2016-11-27T06:46:57.270Z,3.26
2016-11-27T06:47:58.771Z,3.3
2016-11-27T06:49:00.241Z,3.3
2016-11-27T06:50:01.711Z,3.3
2016-11-27T06:51:03.189Z,3.3
2016-11-27T06:52:04.673Z,3.3
2016-11-27T06:53:06.188Z,3.3
2016-11-27T06:54:07.658Z,3.35
2016-11-27T06:55:09.166Z,3.35
2016-11-27T06:56:10.633Z,3.3
2016-11-27T06:57:12.168Z,3.3
2016-11-27T06:58:13.631Z,3.3
2016-11-27T06:59:15.091Z,3.3
2016-11-27T07:00:16.544Z,3.3
2016-11-27T07:01:17.997Z,3.3
2016-11-27T07:02:19.451Z,3.3
2016-11-27T07:03:20.924Z,3.3
2016-11-27T07:04:22.396Z,3.3
2016-11-27T07:05:23.844Z,3.3
2016-11-27T07:06:25.299Z,3.3
2016-11-27T07:07:26.815Z,3.26
2016-11-27T07:08:28.340Z,3.3
2016-11-27T07:09:29.789Z,3.3
2016-11-27T07:10:31.249Z,3.26
2016-11-27T07:11:32.735Z,3.3
2016-11-27T07:12:34.206Z,3.3
2016-11-27T07:13:35.666Z,3.3
2016-11-27T07:14:37.159Z,3.3
2016-11-27T07:15:38.612Z,3.3
2016-11-27T07:16:40.058Z,3.3
2016-11-27T07:17:41.520Z,3.3
2016-11-27T07:18:43.047Z,3.35
2016-11-27T07:19:44.559Z,3.35
2016-11-27T07:20:46.048Z,3.39
2016-11-27T07:21:47.526Z,3.39
2016-11-27T07:22:49.006Z,3.39
2016-11-27T07:23:50.483Z,3.39
2016-11-27T07:24:51.975Z,3.39
2016-11-27T07:25:53.483Z,3.39
2016-11-27T07:26:55.005Z,3.43
2016-11-27T07:27:56.465Z,3.43
2016-11-27T07:28:57.943Z,3.47
2016-11-27T07:29:59.407Z,3.51
2016-11-27T07:31:00.877Z,3.51
2016-11-27T07:32:02.395Z,3.51
2016-11-27T07:33:03.863Z,3.51
2016-11-27T07:34:05.338Z,3.51
2016-11-27T07:35:06.848Z,3.51
2016-11-27T07:36:08.317Z,3.47
2016-11-27T07:37:09.786Z,3.43
2016-11-27T07:38:11.248Z,3.43
2016-11-27T07:39:12.772Z,3.47
2016-11-27T07:40:14.234Z,3.51
2016-11-27T07:41:15.699Z,3.56
2016-11-27T07:42:17.196Z,3.56
2016-11-27T07:43:18.698Z,3.6
2016-11-27T07:44:20.172Z,3.6
2016-11-27T07:45:21.614Z,3.6
2016-11-27T07:46:23.131Z,3.64
2016-11-27T07:47:24.644Z,3.64
2016-11-27T07:48:26.114Z,3.68
2016-11-27T07:49:27.592Z,3.68
2016-11-27T07:50:29.096Z,3.72
2016-11-27T07:51:30.589Z,3.72
2016-11-27T07:52:32.072Z,3.72
2016-11-27T07:53:33.531Z,3.77
2016-11-27T07:54:35.008Z,3.77
2016-11-27T07:55:36.528Z,3.77
2016-11-27T07:56:38.041Z,3.77
2016-11-27T07:57:39.504Z,3.77
2016-11-27T07:58:41.006Z,3.72
2016-11-27T07:59:42.483Z,3.68
2016-11-27T08:00:43.951Z,3.64
2016-11-27T08:01:45.416Z,3.56
2016-11-27T08:02:46.909Z,3.51
2016-11-27T08:03:48.408Z,3.51
2016-11-27T08:04:49.927Z,3.56
2016-11-27T08:05:51.395Z,3.68
2016-11-27T08:06:52.858Z,3.72
2016-11-27T08:07:54.379Z,3.77
2016-11-27T08:08:55.855Z,3.77
2016-11-27T08:09:57.357Z,3.81
2016-11-27T08:10:58.824Z,3.77
2016-11-27T08:12:00.288Z,3.72
2016-11-27T08:13:01.786Z,3.68
2016-11-27T08:14:03.256Z,3.64
2016-11-27T08:15:04.733Z,3.56
2016-11-27T08:16:06.223Z,3.47
2016-11-27T08:17:07.682Z,3.39
2016-11-27T08:18:09.128Z,3.3
2016-11-27T08:19:10.594Z,3.26
2016-11-27T08:20:12.070Z,3.26
2016-11-27T08:21:13.533Z,3.35
2016-11-27T08:22:14.997Z,3.43
2016-11-27T08:23:16.459Z,3.51
2016-11-27T08:24:17.985Z,3.56
2016-11-27T08:25:19.468Z,3.6
2016-11-27T08:26:20.925Z,3.6
2016-11-27T08:27:22.404Z,3.64
2016-11-27T08:28:23.870Z,3.68
2016-11-27T08:29:25.381Z,3.64
2016-11-27T08:30:26.902Z,3.64
2016-11-27T08:31:28.374Z,3.64
2016-11-27T08:32:29.894Z,3.64
2016-11-27T08:33:31.408Z,3.72
2016-11-27T08:34:32.927Z,3.77
2016-11-27T08:35:34.401Z,3.81
2016-11-27T08:36:35.918Z,3.85
2016-11-27T08:37:37.433Z,3.89
2016-11-27T08:38:38.895Z,3.89
2016-11-27T08:39:40.366Z,3.89
2016-11-27T08:40:41.873Z,3.89
2016-11-27T08:41:43.337Z,3.93
2016-11-27T08:42:44.854Z,4.02
2016-11-27T08:43:46.370Z,4.06
2016-11-27T08:44:47.895Z,4.06
2016-11-27T08:45:49.394Z,4.1
2016-11-27T08:46:50.841Z,4.1
2016-11-27T08:47:52.335Z,4.1
2016-11-27T08:48:53.808Z,4.14
2016-11-27T08:49:55.279Z,4.14
2016-11-27T08:50:56.773Z,4.1
2016-11-27T08:51:58.238Z,4.06
2016-11-27T08:52:59.702Z,4.06
2016-11-27T08:54:01.172Z,4.06
2016-11-27T08:55:02.651Z,4.02
2016-11-27T08:56:04.174Z,4.06
2016-11-27T08:57:05.688Z,4.06
2016-11-27T08:58:07.190Z,4.02
2016-11-27T08:59:08.664Z,3.98
2016-11-27T09:00:10.121Z,3.93
2016-11-27T09:01:11.643Z,3.93
2016-11-27T09:02:13.143Z,3.93
2016-11-27T09:03:14.622Z,3.93
2016-11-27T09:04:16.138Z,3.93
2016-11-27T09:05:17.603Z,3.89
2016-11-27T09:06:19.082Z,3.89
2016-11-27T09:07:20.552Z,3.93
2016-11-27T09:08:22.059Z,3.93
2016-11-27T09:09:23.524Z,3.93
2016-11-27T09:10:24.987Z,4.02
2016-11-27T09:11:26.476Z,4.02
2016-11-27T09:12:27.986Z,4.02
2016-11-27T09:13:29.447Z,4.02
2016-11-27T09:14:30.912Z,3.98
2016-11-27T09:15:32.392Z,3.93
2016-11-27T09:16:33.884Z,3.98
2016-11-27T09:17:35.354Z,4.06
2016-11-27T09:18:36.871Z,4.06
2016-11-27T09:19:38.333Z,4.02
2016-11-27T09:20:39.800Z,3.93
2016-11-27T09:21:41.334Z,3.85
2016-11-27T09:22:42.862Z,3.81
2016-11-27T09:23:44.369Z,3.72
2016-11-27T09:24:45.839Z,3.72
2016-11-27T09:25:47.317Z,3.72
2016-11-27T09:26:48.814Z,3.77
2016-11-27T09:27:50.275Z,3.77
2016-11-27T09:28:51.738Z,3.81
2016-11-27T09:29:53.250Z,3.85
2016-11-27T09:30:54.715Z,3.93
2016-11-27T09:31:56.199Z,3.93
2016-11-27T09:32:57.724Z,4.02
2016-11-27T09:33:59.219Z,4.06
2016-11-27T09:35:00.679Z,4.1
2016-11-27T09:36:02.160Z,4.06
2016-11-27T09:37:03.642Z,4.06
2016-11-27T09:38:05.104Z,4.02
2016-11-27T09:39:06.622Z,3.98
2016-11-27T09:40:08.087Z,3.98
2016-11-27T09:41:09.606Z,3.98
2016-11-27T09:42:11.078Z,4.02
2016-11-27T09:43:12.592Z,4.06
2016-11-27T09:44:14.045Z,4.1
2016-11-27T09:45:15.541Z,4.1
2016-11-27T09:46:17.017Z,4.1
2016-11-27T09:47:18.472Z,4.1
2016-11-27T09:48:19.917Z,4.1
2016-11-27T09:49:21.415Z,4.06
2016-11-27T09:50:22.868Z,4.1
2016-11-27T09:51:24.329Z,4.14
2016-11-27T09:52:25.812Z,4.22
2016-11-27T09:53:27.302Z,4.27
2016-11-27T09:54:28.816Z,4.31
2016-11-27T09:55:30.278Z,4.39
2016-11-27T09:56:31.764Z,4.35
2016-11-27T09:57:33.250Z,4.35
2016-11-27T09:58:34.746Z,4.35
2016-11-27T09:59:36.230Z,4.35
2016-11-27T10:00:37.751Z,4.27
2016-11-27T10:01:39.216Z,4.22
2016-11-27T10:02:40.685Z,4.27
2016-11-27T10:03:42.201Z,4.18
2016-11-27T10:04:43.670Z,4.18
2016-11-27T10:05:45.136Z,4.18
2016-11-27T10:06:46.609Z,4.22
2016-11-27T10:07:48.082Z,4.27
2016-11-27T10:08:49.546Z,4.39
2016-11-27T10:09:51.024Z,4.47
2016-11-27T10:10:52.570Z,4.56
2016-11-27T10:11:54.079Z,4.64
2016-11-27T10:12:55.595Z,4.72
2016-11-27T10:13:57.113Z,4.84
2016-11-27T10:14:58.634Z,4.93
2016-11-27T10:16:00.093Z,5.01
2016-11-27T10:17:01.561Z,5.01
2016-11-27T10:18:03.056Z,4.97
2016-11-27T10:19:04.541Z,5.05
2016-11-27T10:20:06.027Z,5.05
2016-11-27T10:21:07.539Z,5.05
2016-11-27T10:22:09.057Z,5.05
2016-11-27T10:23:10.546Z,5.01
2016-11-27T10:24:12.014Z,5.01
2016-11-27T10:25:13.489Z,5.05
2016-11-27T10:26:14.959Z,5.05
2016-11-27T10:27:16.449Z,5.09
2016-11-27T10:28:17.934Z,5.05
2016-11-27T10:29:19.459Z,5.01
2016-11-27T10:30:20.920Z,4.97
2016-11-27T10:31:22.387Z,4.97
2016-11-27T10:32:23.902Z,4.93
2016-11-27T10:33:25.387Z,5.01
2016-11-27T10:34:26.853Z,5.01
2016-11-27T10:35:28.323Z,5.05
2016-11-27T10:36:29.795Z,5.09
2016-11-27T10:37:31.296Z,5.13
2016-11-27T10:38:32.770Z,5.09
2016-11-27T10:39:34.234Z,5.17
2016-11-27T10:40:35.705Z,5.21
2016-11-27T10:41:37.177Z,5.29
2016-11-27T10:42:38.643Z,5.33
2016-11-27T10:43:40.113Z,5.25
2016-11-27T10:44:41.577Z,5.25
2016-11-27T10:45:43.052Z,5.29
2016-11-27T10:46:44.543Z,5.29
2016-11-27T10:47:46.035Z,5.25
2016-11-27T10:48:47.557Z,5.21
2016-11-27T10:49:49.030Z,5.25
2016-11-27T10:50:50.499Z,5.25
2016-11-27T10:51:51.972Z,5.29
2016-11-27T10:52:53.477Z,5.33
2016-11-27T10:53:54.996Z,5.33
2016-11-27T10:54:56.469Z,5.29
2016-11-27T10:55:57.935Z,5.29
2016-11-27T10:56:59.419Z,5.21
2016-11-27T10:58:00.947Z,5.17
2016-11-27T10:59:02.433Z,5.21
2016-11-27T11:00:03.899Z,5.21
2016-11-27T11:01:05.368Z,5.13
2016-11-27T11:02:06.834Z,5.09
2016-11-27T11:03:08.299Z,5.01
2016-11-27T11:04:09.792Z,4.97
2016-11-27T11:05:11.276Z,4.88
2016-11-27T11:06:12.757Z,4.93
2016-11-27T11:07:14.274Z,4.93
2016-11-27T11:08:15.743Z,4.88
2016-11-27T11:09:17.288Z,4.88
2016-11-27T11:10:18.756Z,4.97
2016-11-27T11:11:20.257Z,4.93
2016-11-27T11:12:21.730Z,4.93
2016-11-27T11:13:23.195Z,4.93
2016-11-27T11:14:24.688Z,4.97
2016-11-27T11:15:26.188Z,4.97
2016-11-27T11:16:27.653Z,5.01
2016-11-27T11:17:29.124Z,5.05
2016-11-27T11:18:30.626Z,5.05
2016-11-27T11:19:32.120Z,5.05
2016-11-27T11:20:33.580Z,5.17
2016-11-27T11:21:35.043Z,5.17
2016-11-27T11:22:36.513Z,5.33
2016-11-27T11:23:37.966Z,5.5
2016-11-27T11:24:39.472Z,5.58
2016-11-27T11:25:40.976Z,5.62
2016-11-27T11:26:42.445Z,5.66
2016-11-27T11:27:43.894Z,5.7
2016-11-27T11:28:45.389Z,5.7
2016-11-27T11:29:46.868Z,5.7
2016-11-27T11:30:48.384Z,5.62
2016-11-27T11:31:49.856Z,5.54
2016-11-27T11:32:51.359Z,5.5
2016-11-27T11:33:52.824Z,5.41
2016-11-27T11:34:54.314Z,5.41
2016-11-27T11:35:55.789Z,5.37
2016-11-27T11:36:57.292Z,5.41
2016-11-27T11:37:58.761Z,5.33
2016-11-27T11:39:00.218Z,5.41
2016-11-27T11:40:01.720Z,5.46
2016-11-27T11:41:03.218Z,5.54
2016-11-27T11:42:04.682Z,5.54
2016-11-27T11:43:06.170Z,5.58
2016-11-27T11:44:07.638Z,5.62
2016-11-27T11:45:09.163Z,5.58
2016-11-27T11:46:10.690Z,5.46
2016-11-27T11:47:12.217Z,5.46
2016-11-27T11:48:13.685Z,5.46
2016-11-27T11:49:15.151Z,5.33
2016-11-27T11:50:16.647Z,5.25
2016-11-27T11:51:18.107Z,5.21
2016-11-27T11:52:19.569Z,5.21
2016-11-27T11:53:21.055Z,5.09
2016-11-27T11:54:22.574Z,5.05
2016-11-27T11:55:24.092Z,4.97
2016-11-27T11:56:25.587Z,4.93
2016-11-27T11:57:27.116Z,4.93
2016-11-27T11:58:28.583Z,4.84
2016-11-27T11:59:30.050Z,4.84
2016-11-27T12:00:31.534Z,4.84
2016-11-27T12:01:33.016Z,4.88
2016-11-27T12:02:34.464Z,4.8
2016-11-27T12:03:35.953Z,4.76
2016-11-27T12:04:37.418Z,4.76
2016-11-27T12:05:38.911Z,4.8
2016-11-27T12:06:40.364Z,4.8
2016-11-27T12:07:41.847Z,4.76
2016-11-27T12:08:43.296Z,4.8
2016-11-27T12:09:44.787Z,4.8
2016-11-27T12:10:46.284Z,4.93
2016-11-27T12:11:47.751Z,4.97
2016-11-27T12:12:49.216Z,5.09
2016-11-27T12:13:50.766Z,5.21
2016-11-27T12:14:52.247Z,5.21
2016-11-27T12:15:53.739Z,5.21
2016-11-27T12:16:55.201Z,5.21
2016-11-27T12:17:56.713Z,5.17
2016-11-27T12:18:58.224Z,5.17
2016-11-27T12:19:59.696Z,5.17
2016-11-27T12:21:01.191Z,5.21
2016-11-27T12:22:02.689Z,5.33
2016-11-27T12:23:04.159Z,5.37
2016-11-27T12:24:05.659Z,5.41
2016-11-27T12:25:07.117Z,5.5
2016-11-27T12:26:08.586Z,5.5
2016-11-27T12:27:10.057Z,5.46
2016-11-27T12:28:11.522Z,5.41
2016-11-27T12:29:13.014Z,5.46
2016-11-27T12:30:14.493Z,5.46
2016-11-27T12:31:15.973Z,5.5
2016-11-27T12:32:17.442Z,5.5
2016-11-27T12:33:18.937Z,5.37
2016-11-27T12:34:20.428Z,5.29
2016-11-27T12:35:21.950Z,5.17
2016-11-27T12:36:23.460Z,5.05
2016-11-27T12:37:24.929Z,4.84
2016-11-27T12:38:26.419Z,4.8
2016-11-27T12:39:27.897Z,4.84
2016-11-27T12:40:29.366Z,4.88
2016-11-27T12:41:30.910Z,4.88
2016-11-27T12:42:32.372Z,4.84
2016-11-27T12:43:33.869Z,4.88
2016-11-27T12:44:35.383Z,4.97
2016-11-27T12:45:36.913Z,5.01
2016-11-27T12:46:38.421Z,5.05
2016-11-27T12:47:39.889Z,5.17
2016-11-27T12:48:41.357Z,5.37
2016-11-27T12:49:42.814Z,5.41
2016-11-27T12:50:44.329Z,5.37
2016-11-27T12:51:45.847Z,5.33
2016-11-27T12:52:47.317Z,5.33
2016-11-27T12:53:48.800Z,5.46
2016-11-27T12:54:50.263Z,5.46
2016-11-27T12:55:51.786Z,5.54
2016-11-27T12:56:53.263Z,5.54
2016-11-27T12:57:54.726Z,5.5
2016-11-27T12:58:56.229Z,5.41
2016-11-27T12:59:57.699Z,5.33
2016-11-27T13:00:59.166Z,5.21
2016-11-27T13:02:00.716Z,5.21
2016-11-27T13:03:02.233Z,5.21
2016-11-27T13:04:03.705Z,5.21
2016-11-27T13:05:05.168Z,5.21
2016-11-27T13:06:06.642Z,5.33
2016-11-27T13:07:08.169Z,5.37
2016-11-27T13:08:09.636Z,5.41
2016-11-27T13:09:11.156Z,5.41
2016-11-27T13:10:12.676Z,5.37
2016-11-27T13:11:14.198Z,5.33
2016-11-27T13:12:15.701Z,5.33
2016-11-27T13:13:17.222Z,5.33
2016-11-27T13:14:18.717Z,5.37
2016-11-27T13:15:20.184Z,5.46
2016-11-27T13:16:21.703Z,5.41
2016-11-27T13:17:23.172Z,5.41
2016-11-27T13:18:24.671Z,5.5
2016-11-27T13:19:26.121Z,5.5
2016-11-27T13:20:27.590Z,5.41
2016-11-27T13:21:29.053Z,5.33
2016-11-27T13:22:30.557Z,5.21
2016-11-27T13:23:32.020Z,5.09
2016-11-27T13:24:33.489Z,5.05
2016-11-27T13:25:34.987Z,5.13
2016-11-27T13:26:36.454Z,5.25
2016-11-27T13:27:37.974Z,5.25
2016-11-27T13:28:39.440Z,5.25
2016-11-27T13:29:40.916Z,5.21
2016-11-27T13:30:42.383Z,5.17
2016-11-27T13:31:43.844Z,5.09
2016-11-27T13:32:45.385Z,5.01
2016-11-27T13:33:46.848Z,4.97
2016-11-27T13:34:48.350Z,5.01
2016-11-27T13:35:49.826Z,5.05
2016-11-27T13:36:51.296Z,5.13
2016-11-27T13:37:52.771Z,5.17
2016-11-27T13:38:54.300Z,5.17